sensor_id;sensor_type;location;lat;lon;timestamp;P1;durP1;ratioP1;P2;durP2;ratioP2
22622;SDS011;11478;51.094;7.030;2023-05-15T00:02:04;6.93;;;4.43;;
22622;SDS011;11478;51.094;7.030;2023-05-15T00:04:30;6.95;;;4.55;;
22622;SDS011;11478;51.094;7.030;2023-05-15T00:09:45;7.25;;;4.03;;
22622;SDS011;11478;51.094;7.030;2023-05-15T00:12:14;4.97;;;4.47;;
22622;SDS011;11478;51.094;7.030;2023-05-15T00:14:40;6.97;;;4.80;;
22622;SDS011;11478;51.094;7.030;2023-05-15T00:17:05;7.70;;;5.18;;
22622;SDS011;11478;51.094;7.030;2023-05-15T00:22:25;6.07;;;4.88;;
22622;SDS011;11478;51.094;7.030;2023-05-15T00:28:03;11.60;;;4.82;;
22622;SDS011;11478;51.094;7.030;2023-05-15T00:30:32;11.48;;;5.10;;
22622;SDS011;11478;51.094;7.030;2023-05-15T00:32:57;6.45;;;4.60;;
22622;SDS011;11478;51.094;7.030;2023-05-15T00:37:52;11.23;;;5.35;;
22622;SDS011;11478;51.094;7.030;2023-05-15T00:43:13;6.18;;;5.28;;
22622;SDS011;11478;51.094;7.030;2023-05-15T00:45:51;6.85;;;5.10;;
22622;SDS011;11478;51.094;7.030;2023-05-15T00:48:18;5.50;;;4.80;;
22622;SDS011;11478;51.094;7.030;2023-05-15T00:50:56;8.73;;;4.55;;
22622;SDS011;11478;51.094;7.030;2023-05-15T00:53:23;7.07;;;4.72;;
22622;SDS011;11478;51.094;7.030;2023-05-15T00:55:49;5.72;;;4.53;;
22622;SDS011;11478;51.094;7.030;2023-05-15T00:58:17;8.93;;;4.85;;
22622;SDS011;11478;51.094;7.030;2023-05-15T01:03:27;5.55;;;4.95;;
22622;SDS011;11478;51.094;7.030;2023-05-15T01:06:07;7.90;;;4.70;;
22622;SDS011;11478;51.094;7.030;2023-05-15T01:11:24;6.93;;;5.53;;
22622;SDS011;11478;51.094;7.030;2023-05-15T01:13:59;6.50;;;5.43;;
22622;SDS011;11478;51.094;7.030;2023-05-15T01:19:00;7.45;;;5.32;;
22622;SDS011;11478;51.094;7.030;2023-05-15T01:35:15;6.70;;;4.70;;
22622;SDS011;11478;51.094;7.030;2023-05-15T01:40:43;5.72;;;5.03;;
22622;SDS011;11478;51.094;7.030;2023-05-15T01:43:20;6.47;;;5.38;;
22622;SDS011;11478;51.094;7.030;2023-05-15T01:45:48;6.20;;;4.88;;
22622;SDS011;11478;51.094;7.030;2023-05-15T01:48:14;6.80;;;5.15;;
22622;SDS011;11478;51.094;7.030;2023-05-15T01:50:42;5.30;;;4.80;;
22622;SDS011;11478;51.094;7.030;2023-05-15T01:53:12;8.13;;;5.45;;
22622;SDS011;11478;51.094;7.030;2023-05-15T01:55:39;8.73;;;5.30;;
22622;SDS011;11478;51.094;7.030;2023-05-15T01:58:09;6.63;;;5.38;;
22622;SDS011;11478;51.094;7.030;2023-05-15T02:00:35;6.28;;;5.20;;
22622;SDS011;11478;51.094;7.030;2023-05-15T02:03:10;11.23;;;5.80;;
22622;SDS011;11478;51.094;7.030;2023-05-15T02:05:37;6.50;;;5.78;;
22622;SDS011;11478;51.094;7.030;2023-05-15T02:10:52;7.57;;;5.75;;
22622;SDS011;11478;51.094;7.030;2023-05-15T02:13:29;7.40;;;5.50;;
22622;SDS011;11478;51.094;7.030;2023-05-15T02:15:56;9.10;;;5.75;;
22622;SDS011;11478;51.094;7.030;2023-05-15T02:18:23;8.02;;;5.97;;
22622;SDS011;11478;51.094;7.030;2023-05-15T02:20:59;6.53;;;5.60;;
22622;SDS011;11478;51.094;7.030;2023-05-15T02:23:27;8.20;;;6.18;;
22622;SDS011;11478;51.094;7.030;2023-05-15T02:28:44;7.82;;;5.60;;
22622;SDS011;11478;51.094;7.030;2023-05-15T02:37:08;6.25;;;5.60;;
22622;SDS011;11478;51.094;7.030;2023-05-15T02:42:28;7.07;;;5.72;;
22622;SDS011;11478;51.094;7.030;2023-05-15T02:44:56;6.97;;;5.95;;
22622;SDS011;11478;51.094;7.030;2023-05-15T02:47:22;6.45;;;5.38;;
22622;SDS011;11478;51.094;7.030;2023-05-15T02:49:57;6.20;;;5.60;;
22622;SDS011;11478;51.094;7.030;2023-05-15T02:52:23;8.90;;;5.40;;
22622;SDS011;11478;51.094;7.030;2023-05-15T02:54:59;9.02;;;5.43;;
22622;SDS011;11478;51.094;7.030;2023-05-15T02:57:25;9.20;;;5.88;;
22622;SDS011;11478;51.094;7.030;2023-05-15T02:59:51;6.22;;;5.63;;
22622;SDS011;11478;51.094;7.030;2023-05-15T03:02:20;7.53;;;5.57;;
22622;SDS011;11478;51.094;7.030;2023-05-15T03:04:52;7.40;;;6.20;;
22622;SDS011;11478;51.094;7.030;2023-05-15T03:07:18;7.28;;;6.05;;
22622;SDS011;11478;51.094;7.030;2023-05-15T03:09:51;6.47;;;5.88;;
22622;SDS011;11478;51.094;7.030;2023-05-15T03:12:16;7.10;;;6.15;;
22622;SDS011;11478;51.094;7.030;2023-05-15T03:14:42;8.27;;;6.28;;
22622;SDS011;11478;51.094;7.030;2023-05-15T03:17:08;6.22;;;5.63;;
22622;SDS011;11478;51.094;7.030;2023-05-15T03:19:37;7.55;;;5.75;;
22622;SDS011;11478;51.094;7.030;2023-05-15T03:22:03;7.90;;;5.78;;
22622;SDS011;11478;51.094;7.030;2023-05-15T03:24:29;6.40;;;5.80;;
22622;SDS011;11478;51.094;7.030;2023-05-15T03:26:54;6.63;;;5.45;;
22622;SDS011;11478;51.094;7.030;2023-05-15T03:32:15;10.18;;;5.53;;
22622;SDS011;11478;51.094;7.030;2023-05-15T03:34:47;7.45;;;5.82;;
22622;SDS011;11478;51.094;7.030;2023-05-15T03:37:13;7.97;;;6.10;;
22622;SDS011;11478;51.094;7.030;2023-05-15T03:39:45;9.10;;;7.15;;
22622;SDS011;11478;51.094;7.030;2023-05-15T03:42:11;8.73;;;6.30;;
22622;SDS011;11478;51.094;7.030;2023-05-15T03:44:44;7.57;;;6.65;;
22622;SDS011;11478;51.094;7.030;2023-05-15T03:47:10;7.35;;;6.32;;
22622;SDS011;11478;51.094;7.030;2023-05-15T03:49:47;9.80;;;6.97;;
22622;SDS011;11478;51.094;7.030;2023-05-15T03:52:13;9.52;;;7.72;;
22622;SDS011;11478;51.094;7.030;2023-05-15T03:54:40;14.63;;;11.85;;
22622;SDS011;11478;51.094;7.030;2023-05-15T03:57:06;47.08;;;30.38;;
22622;SDS011;11478;51.094;7.030;2023-05-15T04:02:21;59.33;;;35.53;;
22622;SDS011;11478;51.094;7.030;2023-05-15T04:04:59;51.33;;;33.65;;
22622;SDS011;11478;51.094;7.030;2023-05-15T04:07:25;68.85;;;41.78;;
22622;SDS011;11478;51.094;7.030;2023-05-15T04:12:35;68.07;;;40.80;;
22622;SDS011;11478;51.094;7.030;2023-05-15T04:15:16;74.95;;;42.53;;
22622;SDS011;11478;51.094;7.030;2023-05-15T04:17:43;85.85;;;45.20;;
22622;SDS011;11478;51.094;7.030;2023-05-15T04:20:15;83.97;;;48.63;;
22622;SDS011;11478;51.094;7.030;2023-05-15T04:25:12;95.60;;;52.08;;
22622;SDS011;11478;51.094;7.030;2023-05-15T04:30:27;100.40;;;51.30;;
22622;SDS011;11478;51.094;7.030;2023-05-15T04:41:42;110.63;;;53.35;;
22622;SDS011;11478;51.094;7.030;2023-05-15T04:44:11;114.32;;;53.20;;
22622;SDS011;11478;51.094;7.030;2023-05-15T04:46:37;109.25;;;52.80;;
22622;SDS011;11478;51.094;7.030;2023-05-15T04:49:07;117.20;;;55.60;;
22622;SDS011;11478;51.094;7.030;2023-05-15T04:51:33;125.80;;;57.58;;
22622;SDS011;11478;51.094;7.030;2023-05-15T04:53:59;122.07;;;55.20;;
22622;SDS011;11478;51.094;7.030;2023-05-15T04:56:25;107.38;;;54.85;;
22622;SDS011;11478;51.094;7.030;2023-05-15T04:58:53;112.57;;;51.70;;
22622;SDS011;11478;51.094;7.030;2023-05-15T05:01:18;114.57;;;53.72;;
22622;SDS011;11478;51.094;7.030;2023-05-15T05:03:45;115.88;;;53.55;;
22622;SDS011;11478;51.094;7.030;2023-05-15T05:06:11;110.15;;;53.83;;
22622;SDS011;11478;51.094;7.030;2023-05-15T05:08:38;110.22;;;51.75;;
22622;SDS011;11478;51.094;7.030;2023-05-15T05:11:04;120.10;;;54.80;;
22622;SDS011;11478;51.094;7.030;2023-05-15T05:13:33;112.15;;;56.15;;
22622;SDS011;11478;51.094;7.030;2023-05-15T05:15:59;114.00;;;54.92;;
22622;SDS011;11478;51.094;7.030;2023-05-15T05:18:25;108.53;;;53.58;;
22622;SDS011;11478;51.094;7.030;2023-05-15T05:23:32;107.35;;;54.08;;
22622;SDS011;11478;51.094;7.030;2023-05-15T05:25:59;97.25;;;52.03;;
22622;SDS011;11478;51.094;7.030;2023-05-15T05:28:25;102.35;;;55.08;;
22622;SDS011;11478;51.094;7.030;2023-05-15T05:30:51;99.60;;;54.00;;
22622;SDS011;11478;51.094;7.030;2023-05-15T05:33:16;98.95;;;54.35;;
22622;SDS011;11478;51.094;7.030;2023-05-15T05:35:45;101.40;;;55.38;;
22622;SDS011;11478;51.094;7.030;2023-05-15T05:38:10;96.68;;;54.72;;
22622;SDS011;11478;51.094;7.030;2023-05-15T05:40:37;101.55;;;57.10;;
22622;SDS011;11478;51.094;7.030;2023-05-15T05:43:03;103.00;;;55.28;;
22622;SDS011;11478;51.094;7.030;2023-05-15T05:45:32;111.32;;;60.03;;
22622;SDS011;11478;51.094;7.030;2023-05-15T05:47:58;105.32;;;57.60;;
22622;SDS011;11478;51.094;7.030;2023-05-15T05:50:35;112.30;;;60.13;;
22622;SDS011;11478;51.094;7.030;2023-05-15T05:53:01;100.25;;;58.20;;
22622;SDS011;11478;51.094;7.030;2023-05-15T05:58:03;104.35;;;58.72;;
22622;SDS011;11478;51.094;7.030;2023-05-15T06:00:31;113.45;;;60.40;;
22622;SDS011;11478;51.094;7.030;2023-05-15T06:02:57;110.43;;;59.55;;
22622;SDS011;11478;51.094;7.030;2023-05-15T06:05:25;108.38;;;59.80;;
22622;SDS011;11478;51.094;7.030;2023-05-15T06:07:51;104.63;;;58.53;;
22622;SDS011;11478;51.094;7.030;2023-05-15T06:10:20;116.45;;;60.28;;
22622;SDS011;11478;51.094;7.030;2023-05-15T06:12:46;113.65;;;59.78;;
22622;SDS011;11478;51.094;7.030;2023-05-15T06:15:14;122.30;;;60.67;;
22622;SDS011;11478;51.094;7.030;2023-05-15T06:17:40;114.38;;;58.17;;
22622;SDS011;11478;51.094;7.030;2023-05-15T06:22:49;112.32;;;59.85;;
22622;SDS011;11478;51.094;7.030;2023-05-15T06:25:15;109.75;;;56.78;;
22622;SDS011;11478;51.094;7.030;2023-05-15T06:27:41;106.68;;;57.20;;
22622;SDS011;11478;51.094;7.030;2023-05-15T06:30:07;105.90;;;57.70;;
22622;SDS011;11478;51.094;7.030;2023-05-15T06:32:34;97.70;;;55.33;;
22622;SDS011;11478;51.094;7.030;2023-05-15T06:35:01;93.18;;;51.35;;
22622;SDS011;11478;51.094;7.030;2023-05-15T06:37:27;79.88;;;49.42;;
22622;SDS011;11478;51.094;7.030;2023-05-15T06:40:01;77.43;;;47.83;;
22622;SDS011;11478;51.094;7.030;2023-05-15T06:42:28;66.80;;;43.25;;
22622;SDS011;11478;51.094;7.030;2023-05-15T06:47:31;69.28;;;45.35;;
22622;SDS011;11478;51.094;7.030;2023-05-15T06:49:57;69.53;;;45.60;;
22622;SDS011;11478;51.094;7.030;2023-05-15T06:52:23;66.65;;;43.65;;
22622;SDS011;11478;51.094;7.030;2023-05-15T06:54:53;69.82;;;45.63;;
22622;SDS011;11478;51.094;7.030;2023-05-15T06:57:19;67.80;;;47.17;;
22622;SDS011;11478;51.094;7.030;2023-05-15T06:59:45;68.05;;;46.28;;
22622;SDS011;11478;51.094;7.030;2023-05-15T07:02:11;66.32;;;46.05;;
22622;SDS011;11478;51.094;7.030;2023-05-15T07:04:41;65.13;;;45.35;;
22622;SDS011;11478;51.094;7.030;2023-05-15T07:07:10;63.40;;;44.47;;
22622;SDS011;11478;51.094;7.030;2023-05-15T07:09:37;63.00;;;44.80;;
22622;SDS011;11478;51.094;7.030;2023-05-15T07:12:03;61.13;;;42.33;;
22622;SDS011;11478;51.094;7.030;2023-05-15T07:14:32;66.55;;;44.58;;
22622;SDS011;11478;51.094;7.030;2023-05-15T07:16:58;61.45;;;43.30;;
22622;SDS011;11478;51.094;7.030;2023-05-15T07:19:32;58.13;;;43.63;;
22622;SDS011;11478;51.094;7.030;2023-05-15T07:24:31;69.65;;;47.85;;
22622;SDS011;11478;51.094;7.030;2023-05-15T07:26:57;63.45;;;46.92;;
22622;SDS011;11478;51.094;7.030;2023-05-15T07:29:23;74.78;;;52.00;;
22622;SDS011;11478;51.094;7.030;2023-05-15T07:31:59;77.07;;;53.25;;
22622;SDS011;11478;51.094;7.030;2023-05-15T07:34:25;71.88;;;52.50;;
22622;SDS011;11478;51.094;7.030;2023-05-15T07:36:53;72.82;;;50.92;;
22622;SDS011;11478;51.094;7.030;2023-05-15T07:39:19;69.32;;;50.95;;
22622;SDS011;11478;51.094;7.030;2023-05-15T07:41:56;68.95;;;48.92;;
22622;SDS011;11478;51.094;7.030;2023-05-15T07:44:22;67.95;;;50.78;;
22622;SDS011;11478;51.094;7.030;2023-05-15T07:46:48;71.63;;;51.30;;
22622;SDS011;11478;51.094;7.030;2023-05-15T07:49:17;66.72;;;49.47;;
22622;SDS011;11478;51.094;7.030;2023-05-15T07:51:52;68.10;;;49.50;;
22622;SDS011;11478;51.094;7.030;2023-05-15T07:54:18;64.25;;;49.08;;
22622;SDS011;11478;51.094;7.030;2023-05-15T07:56:45;71.15;;;50.50;;
22622;SDS011;11478;51.094;7.030;2023-05-15T07:59:11;65.72;;;48.40;;
22622;SDS011;11478;51.094;7.030;2023-05-15T08:01:37;61.67;;;45.28;;
22622;SDS011;11478;51.094;7.030;2023-05-15T08:04:05;59.38;;;45.08;;
22622;SDS011;11478;51.094;7.030;2023-05-15T08:06:32;60.42;;;46.22;;
22622;SDS011;11478;51.094;7.030;2023-05-15T08:08:59;61.03;;;43.50;;
22622;SDS011;11478;51.094;7.030;2023-05-15T08:11:27;60.53;;;45.60;;
22622;SDS011;11478;51.094;7.030;2023-05-15T08:13:52;63.45;;;45.05;;
22622;SDS011;11478;51.094;7.030;2023-05-15T08:16:19;56.33;;;42.72;;
22622;SDS011;11478;51.094;7.030;2023-05-15T08:18:45;59.10;;;42.08;;
22622;SDS011;11478;51.094;7.030;2023-05-15T08:21:11;56.05;;;42.03;;
22622;SDS011;11478;51.094;7.030;2023-05-15T08:23:37;54.58;;;42.63;;
22622;SDS011;11478;51.094;7.030;2023-05-15T08:26:03;62.92;;;46.13;;
22622;SDS011;11478;51.094;7.030;2023-05-15T08:28:29;61.25;;;46.78;;
22622;SDS011;11478;51.094;7.030;2023-05-15T08:30:56;60.10;;;45.10;;
22622;SDS011;11478;51.094;7.030;2023-05-15T08:33:22;62.40;;;47.63;;
22622;SDS011;11478;51.094;7.030;2023-05-15T08:35:49;62.38;;;45.75;;
22622;SDS011;11478;51.094;7.030;2023-05-15T08:38:15;61.17;;;47.05;;
22622;SDS011;11478;51.094;7.030;2023-05-15T08:40:45;61.95;;;45.15;;
22622;SDS011;11478;51.094;7.030;2023-05-15T08:43:14;61.28;;;45.53;;
22622;SDS011;11478;51.094;7.030;2023-05-15T08:45:44;59.05;;;44.45;;
22622;SDS011;11478;51.094;7.030;2023-05-15T08:48:13;56.83;;;43.47;;
22622;SDS011;11478;51.094;7.030;2023-05-15T08:50:40;55.15;;;42.97;;
22622;SDS011;11478;51.094;7.030;2023-05-15T08:53:08;50.20;;;39.42;;
22622;SDS011;11478;51.094;7.030;2023-05-15T08:55:38;55.25;;;41.35;;
22622;SDS011;11478;51.094;7.030;2023-05-15T08:58:05;54.20;;;41.83;;
22622;SDS011;11478;51.094;7.030;2023-05-15T09:00:33;55.75;;;43.47;;
22622;SDS011;11478;51.094;7.030;2023-05-15T09:03:02;53.50;;;41.08;;
22622;SDS011;11478;51.094;7.030;2023-05-15T09:05:29;52.40;;;39.17;;
22622;SDS011;11478;51.094;7.030;2023-05-15T09:07:56;50.38;;;40.08;;
22622;SDS011;11478;51.094;7.030;2023-05-15T09:10:32;48.33;;;37.17;;
22622;SDS011;11478;51.094;7.030;2023-05-15T09:15:26;43.10;;;34.95;;
22622;SDS011;11478;51.094;7.030;2023-05-15T09:17:54;42.08;;;33.65;;
22622;SDS011;11478;51.094;7.030;2023-05-15T09:23:03;44.35;;;33.92;;
22622;SDS011;11478;51.094;7.030;2023-05-15T09:26:03;45.00;;;33.00;;
22622;SDS011;11478;51.094;7.030;2023-05-15T09:28:29;43.85;;;32.40;;
22622;SDS011;11478;51.094;7.030;2023-05-15T09:31:01;37.80;;;31.70;;
22622;SDS011;11478;51.094;7.030;2023-05-15T09:33:36;39.28;;;31.20;;
22622;SDS011;11478;51.094;7.030;2023-05-15T09:36:05;41.40;;;30.70;;
22622;SDS011;11478;51.094;7.030;2023-05-15T09:38:32;40.88;;;31.20;;
22622;SDS011;11478;51.094;7.030;2023-05-15T09:41:22;34.75;;;28.35;;
22622;SDS011;11478;51.094;7.030;2023-05-15T09:43:50;36.92;;;29.58;;
22622;SDS011;11478;51.094;7.030;2023-05-15T09:46:16;34.53;;;28.40;;
22622;SDS011;11478;51.094;7.030;2023-05-15T09:48:42;39.25;;;31.73;;
22622;SDS011;11478;51.094;7.030;2023-05-15T09:51:15;38.92;;;32.38;;
22622;SDS011;11478;51.094;7.030;2023-05-15T09:53:49;40.28;;;32.35;;
22622;SDS011;11478;51.094;7.030;2023-05-15T09:56:22;35.60;;;29.02;;
22622;SDS011;11478;51.094;7.030;2023-05-15T09:59:05;32.55;;;27.60;;
22622;SDS011;11478;51.094;7.030;2023-05-15T10:04:11;35.95;;;29.65;;
22622;SDS011;11478;51.094;7.030;2023-05-15T10:06:40;37.72;;;29.73;;
22622;SDS011;11478;51.094;7.030;2023-05-15T10:09:12;37.88;;;29.73;;
22622;SDS011;11478;51.094;7.030;2023-05-15T10:11:41;34.50;;;28.33;;
22622;SDS011;11478;51.094;7.030;2023-05-15T10:14:10;35.38;;;28.48;;
22622;SDS011;11478;51.094;7.030;2023-05-15T10:16:37;31.58;;;27.25;;
22622;SDS011;11478;51.094;7.030;2023-05-15T10:19:07;34.78;;;25.38;;
22622;SDS011;11478;51.094;7.030;2023-05-15T10:21:49;32.28;;;24.05;;
22622;SDS011;11478;51.094;7.030;2023-05-15T10:24:18;26.23;;;22.27;;
22622;SDS011;11478;51.094;7.030;2023-05-15T10:27:07;32.78;;;21.05;;
22622;SDS011;11478;51.094;7.030;2023-05-15T10:29:35;27.38;;;20.75;;
22622;SDS011;11478;51.094;7.030;2023-05-15T10:32:11;23.50;;;20.65;;
22622;SDS011;11478;51.094;7.030;2023-05-15T10:34:39;26.35;;;20.50;;
22622;SDS011;11478;51.094;7.030;2023-05-15T10:37:06;26.80;;;20.90;;
22622;SDS011;11478;51.094;7.030;2023-05-15T10:39:36;29.25;;;19.95;;
22622;SDS011;11478;51.094;7.030;2023-05-15T10:42:05;22.40;;;16.23;;
22622;SDS011;11478;51.094;7.030;2023-05-15T10:44:34;27.15;;;20.30;;
22622;SDS011;11478;51.094;7.030;2023-05-15T10:47:00;25.58;;;20.35;;
22622;SDS011;11478;51.094;7.030;2023-05-15T10:49:29;24.95;;;18.48;;
22622;SDS011;11478;51.094;7.030;2023-05-15T10:51:55;23.98;;;19.83;;
22622;SDS011;11478;51.094;7.030;2023-05-15T10:54:26;22.05;;;16.02;;
22622;SDS011;11478;51.094;7.030;2023-05-15T10:56:55;24.85;;;17.08;;
22622;SDS011;11478;51.094;7.030;2023-05-15T10:59:29;28.42;;;20.92;;
22622;SDS011;11478;51.094;7.030;2023-05-15T11:04:24;28.30;;;18.05;;
22622;SDS011;11478;51.094;7.030;2023-05-15T11:07:13;22.17;;;17.50;;
22622;SDS011;11478;51.094;7.030;2023-05-15T11:09:47;23.52;;;17.60;;
22622;SDS011;11478;51.094;7.030;2023-05-15T11:12:21;24.38;;;17.90;;
22622;SDS011;11478;51.094;7.030;2023-05-15T11:17:16;26.67;;;20.45;;
22622;SDS011;11478;51.094;7.030;2023-05-15T11:23:00;23.40;;;17.00;;
22622;SDS011;11478;51.094;7.030;2023-05-15T11:25:29;24.65;;;16.13;;
22622;SDS011;11478;51.094;7.030;2023-05-15T11:28:04;20.60;;;16.87;;
22622;SDS011;11478;51.094;7.030;2023-05-15T11:30:35;19.30;;;14.98;;
22622;SDS011;11478;51.094;7.030;2023-05-15T11:33:11;22.50;;;16.73;;
22622;SDS011;11478;51.094;7.030;2023-05-15T11:35:46;21.80;;;15.25;;
22622;SDS011;11478;51.094;7.030;2023-05-15T11:38:22;19.08;;;14.15;;
22622;SDS011;11478;51.094;7.030;2023-05-15T11:40:51;23.98;;;15.73;;
22622;SDS011;11478;51.094;7.030;2023-05-15T11:46:08;20.52;;;15.02;;
22622;SDS011;11478;51.094;7.030;2023-05-15T11:48:39;22.33;;;13.88;;
22622;SDS011;11478;51.094;7.030;2023-05-15T11:51:39;20.15;;;14.98;;
22622;SDS011;11478;51.094;7.030;2023-05-15T11:53:59;20.55;;;14.48;;
22622;SDS011;11478;51.094;7.030;2023-05-15T11:56:40;17.88;;;13.23;;
22622;SDS011;11478;51.094;7.030;2023-05-15T11:59:13;18.10;;;13.07;;
22622;SDS011;11478;51.094;7.030;2023-05-15T12:01:40;14.60;;;11.43;;
22622;SDS011;11478;51.094;7.030;2023-05-15T12:04:14;17.35;;;13.00;;
22622;SDS011;11478;51.094;7.030;2023-05-15T12:06:42;15.70;;;12.75;;
22622;SDS011;11478;51.094;7.030;2023-05-15T12:09:17;15.45;;;10.90;;
22622;SDS011;11478;51.094;7.030;2023-05-15T12:11:54;16.40;;;11.52;;
22622;SDS011;11478;51.094;7.030;2023-05-15T12:14:29;18.05;;;13.95;;
22622;SDS011;11478;51.094;7.030;2023-05-15T12:19:45;15.10;;;10.50;;
22622;SDS011;11478;51.094;7.030;2023-05-15T12:22:13;19.55;;;12.35;;
22622;SDS011;11478;51.094;7.030;2023-05-15T12:24:41;17.20;;;11.38;;
22622;SDS011;11478;51.094;7.030;2023-05-15T12:27:07;16.95;;;11.05;;
22622;SDS011;11478;51.094;7.030;2023-05-15T12:29:36;16.95;;;11.80;;
22622;SDS011;11478;51.094;7.030;2023-05-15T12:32:04;15.68;;;11.73;;
22622;SDS011;11478;51.094;7.030;2023-05-15T12:37:12;16.58;;;11.30;;
22622;SDS011;11478;51.094;7.030;2023-05-15T12:39:48;15.93;;;10.68;;
22622;SDS011;11478;51.094;7.030;2023-05-15T12:42:18;11.95;;;8.60;;
22622;SDS011;11478;51.094;7.030;2023-05-15T12:44:45;14.05;;;8.27;;
22622;SDS011;11478;51.094;7.030;2023-05-15T12:47:13;9.25;;;7.57;;
22622;SDS011;11478;51.094;7.030;2023-05-15T12:49:42;16.67;;;8.68;;
22622;SDS011;11478;51.094;7.030;2023-05-15T12:52:08;15.02;;;9.70;;
22622;SDS011;11478;51.094;7.030;2023-05-15T12:54:38;16.33;;;10.82;;
22622;SDS011;11478;51.094;7.030;2023-05-15T12:57:07;14.68;;;10.95;;
22622;SDS011;11478;51.094;7.030;2023-05-15T12:59:51;12.25;;;9.45;;
22622;SDS011;11478;51.094;7.030;2023-05-15T13:02:24;9.15;;;7.20;;
22622;SDS011;11478;51.094;7.030;2023-05-15T13:04:53;12.40;;;6.68;;
22622;SDS011;11478;51.094;7.030;2023-05-15T13:07:20;8.73;;;6.30;;
22622;SDS011;11478;51.094;7.030;2023-05-15T13:10:00;8.75;;;5.10;;
22622;SDS011;11478;51.094;7.030;2023-05-15T13:12:36;10.50;;;6.60;;
22622;SDS011;11478;51.094;7.030;2023-05-15T13:20:32;12.07;;;7.65;;
22622;SDS011;11478;51.094;7.030;2023-05-15T13:23:20;9.35;;;6.05;;
22622;SDS011;11478;51.094;7.030;2023-05-15T13:26:00;7.75;;;6.95;;
22622;SDS011;11478;51.094;7.030;2023-05-15T13:28:26;10.63;;;8.13;;
22622;SDS011;11478;51.094;7.030;2023-05-15T13:30:57;10.05;;;7.30;;
22622;SDS011;11478;51.094;7.030;2023-05-15T13:33:27;11.18;;;8.43;;
22622;SDS011;11478;51.094;7.030;2023-05-15T13:36:03;9.82;;;7.43;;
22622;SDS011;11478;51.094;7.030;2023-05-15T13:38:29;8.20;;;6.15;;
22622;SDS011;11478;51.094;7.030;2023-05-15T13:40:55;8.05;;;6.30;;
22622;SDS011;11478;51.094;7.030;2023-05-15T13:43:27;10.65;;;7.15;;
22622;SDS011;11478;51.094;7.030;2023-05-15T13:48:41;9.82;;;7.28;;
22622;SDS011;11478;51.094;7.030;2023-05-15T13:51:14;9.50;;;6.10;;
22622;SDS011;11478;51.094;7.030;2023-05-15T13:53:43;8.23;;;6.38;;
22622;SDS011;11478;51.094;7.030;2023-05-15T13:56:10;9.73;;;7.25;;
22622;SDS011;11478;51.094;7.030;2023-05-15T13:58:36;9.70;;;7.05;;
22622;SDS011;11478;51.094;7.030;2023-05-15T14:01:05;10.95;;;6.90;;
22622;SDS011;11478;51.094;7.030;2023-05-15T14:03:31;8.13;;;6.50;;
22622;SDS011;11478;51.094;7.030;2023-05-15T14:05:58;7.03;;;5.50;;
22622;SDS011;11478;51.094;7.030;2023-05-15T14:08:30;11.40;;;6.93;;
22622;SDS011;11478;51.094;7.030;2023-05-15T14:11:00;9.07;;;6.03;;
22622;SDS011;11478;51.094;7.030;2023-05-15T14:13:26;9.02;;;6.47;;
22622;SDS011;11478;51.094;7.030;2023-05-15T14:15:57;10.38;;;7.00;;
22622;SDS011;11478;51.094;7.030;2023-05-15T14:18:26;11.50;;;7.65;;
22622;SDS011;11478;51.094;7.030;2023-05-15T14:20:57;11.48;;;7.93;;
22622;SDS011;11478;51.094;7.030;2023-05-15T14:23:22;9.63;;;7.57;;
22622;SDS011;11478;51.094;7.030;2023-05-15T14:25:49;10.65;;;7.82;;
22622;SDS011;11478;51.094;7.030;2023-05-15T14:28:15;10.52;;;7.55;;
22622;SDS011;11478;51.094;7.030;2023-05-15T14:33:19;11.02;;;8.65;;
22622;SDS011;11478;51.094;7.030;2023-05-15T14:35:46;16.15;;;11.02;;
22622;SDS011;11478;51.094;7.030;2023-05-15T14:38:12;13.02;;;10.68;;
22622;SDS011;11478;51.094;7.030;2023-05-15T14:40:38;16.25;;;13.27;;
22622;SDS011;11478;51.094;7.030;2023-05-15T14:43:06;16.67;;;12.43;;
22622;SDS011;11478;51.094;7.030;2023-05-15T14:45:33;15.20;;;12.00;;
22622;SDS011;11478;51.094;7.030;2023-05-15T14:47:59;16.58;;;11.75;;
22622;SDS011;11478;51.094;7.030;2023-05-15T14:50:25;14.35;;;12.15;;
22622;SDS011;11478;51.094;7.030;2023-05-15T14:52:51;19.90;;;16.55;;
22622;SDS011;11478;51.094;7.030;2023-05-15T14:55:17;19.15;;;15.75;;
22622;SDS011;11478;51.094;7.030;2023-05-15T14:57:47;18.60;;;16.20;;
22622;SDS011;11478;51.094;7.030;2023-05-15T15:00:15;18.45;;;14.05;;
22622;SDS011;11478;51.094;7.030;2023-05-15T15:02:41;13.88;;;11.43;;
22622;SDS011;11478;51.094;7.030;2023-05-15T15:05:14;13.25;;;9.32;;
22622;SDS011;11478;51.094;7.030;2023-05-15T15:10:42;13.90;;;11.25;;
22622;SDS011;11478;51.094;7.030;2023-05-15T15:13:08;16.70;;;11.98;;
22622;SDS011;11478;51.094;7.030;2023-05-15T15:15:35;14.10;;;12.00;;
22622;SDS011;11478;51.094;7.030;2023-05-15T15:18:04;14.63;;;12.73;;
22622;SDS011;11478;51.094;7.030;2023-05-15T15:20:31;16.05;;;11.77;;
22622;SDS011;11478;51.094;7.030;2023-05-15T15:22:57;12.85;;;10.65;;
22622;SDS011;11478;51.094;7.030;2023-05-15T15:25:30;13.77;;;10.50;;
22622;SDS011;11478;51.094;7.030;2023-05-15T15:30:24;14.52;;;11.60;;
22622;SDS011;11478;51.094;7.030;2023-05-15T15:32:50;13.82;;;10.77;;
22622;SDS011;11478;51.094;7.030;2023-05-15T15:35:18;12.60;;;8.95;;
22622;SDS011;11478;51.094;7.030;2023-05-15T15:37:44;10.57;;;8.35;;
22622;SDS011;11478;51.094;7.030;2023-05-15T15:40:11;11.43;;;8.57;;
22622;SDS011;11478;51.094;7.030;2023-05-15T15:42:39;12.82;;;11.32;;
22622;SDS011;11478;51.094;7.030;2023-05-15T15:45:05;15.73;;;11.80;;
22622;SDS011;11478;51.094;7.030;2023-05-15T15:50:17;13.63;;;10.52;;
22622;SDS011;11478;51.094;7.030;2023-05-15T15:52:51;13.68;;;10.43;;
22622;SDS011;11478;51.094;7.030;2023-05-15T15:55:17;13.85;;;12.32;;
22622;SDS011;11478;51.094;7.030;2023-05-15T15:57:58;17.38;;;13.35;;
22622;SDS011;11478;51.094;7.030;2023-05-15T16:00:24;22.40;;;15.93;;
22622;SDS011;11478;51.094;7.030;2023-05-15T16:02:51;20.73;;;16.58;;
22622;SDS011;11478;51.094;7.030;2023-05-15T16:05:17;19.05;;;16.38;;
22622;SDS011;11478;51.094;7.030;2023-05-15T16:07:44;22.70;;;16.83;;
22622;SDS011;11478;51.094;7.030;2023-05-15T16:10:12;18.42;;;16.42;;
22622;SDS011;11478;51.094;7.030;2023-05-15T16:12:42;23.10;;;17.90;;
22622;SDS011;11478;51.094;7.030;2023-05-15T16:15:17;21.60;;;17.30;;
22622;SDS011;11478;51.094;7.030;2023-05-15T16:17:49;24.73;;;18.70;;
22622;SDS011;11478;51.094;7.030;2023-05-15T16:20:22;20.85;;;17.85;;
22622;SDS011;11478;51.094;7.030;2023-05-15T16:22:48;23.77;;;17.35;;
22622;SDS011;11478;51.094;7.030;2023-05-15T16:25:19;20.35;;;16.45;;
22622;SDS011;11478;51.094;7.030;2023-05-15T16:27:47;21.13;;;16.63;;
22622;SDS011;11478;51.094;7.030;2023-05-15T16:30:16;19.83;;;16.23;;
22622;SDS011;11478;51.094;7.030;2023-05-15T16:32:43;20.67;;;16.02;;
22622;SDS011;11478;51.094;7.030;2023-05-15T16:35:14;24.63;;;17.15;;
22622;SDS011;11478;51.094;7.030;2023-05-15T16:37:50;25.17;;;18.23;;
22622;SDS011;11478;51.094;7.030;2023-05-15T16:40:18;21.83;;;17.52;;
22622;SDS011;11478;51.094;7.030;2023-05-15T16:42:44;22.77;;;16.27;;
22622;SDS011;11478;51.094;7.030;2023-05-15T16:45:12;22.33;;;17.13;;
22622;SDS011;11478;51.094;7.030;2023-05-15T16:47:39;18.65;;;16.63;;
22622;SDS011;11478;51.094;7.030;2023-05-15T16:50:07;23.25;;;18.35;;
22622;SDS011;11478;51.094;7.030;2023-05-15T16:52:33;21.08;;;17.42;;